Time;durP1;ratioP1;P1;durP2;ratioP2;P2;SDS_P1;SDS_P2;PMS_P1;PMS_P2;Temp;Humidity;BMP_temperature;BMP_pressure;BME280_temperature;BME280_humidity;BME280_pressure;Samples;Min_cycle;Max_cycle;Signal;HPM_P1;HPM_P2
2022/02/28 00:01:34;;;;;;;;;;;4.20;99.90;;;;;;4180244;28;19925;-57
2022/02/28 00:03:37;;;;;;;;;;;4.20;99.90;;;;;;4181701;28;19935;-56
2022/02/28 00:05:39;;;;;;;;;;;4.20;99.90;;;;;;4178495;28;19990;-56
2022/02/28 00:07:42;;;;;;;;;;;4.20;99.90;;;;;;4179484;28;19933;-56
2022/02/28 00:09:43;;;;;;;;;;;4.20;99.90;;;;;;4187576;28;19975;-56
2022/02/28 00:11:45;;;;;;;;;;;4.20;99.90;;;;;;4179798;28;19925;-55
2022/02/28 00:13:47;;;;;;;;;;;4.20;99.90;;;;;;4178378;28;19929;-55
2022/02/28 00:15:49;;;;;;;;;;;4.10;99.90;;;;;;4182267;28;19929;-57
2022/02/28 00:17:51;;;;;;;;;;;4.10;99.90;;;;;;4179811;28;19963;-56
2022/02/28 00:19:53;;;;;;;;;;;4.10;99.90;;;;;;4176952;28;19933;-56
2022/02/28 00:21:55;;;;;;;;;;;4.10;99.90;;;;;;4178667;28;19925;-56
2022/02/28 00:23:57;;;;;;;;;;;4.10;99.90;;;;;;4177178;28;19990;-56
2022/02/28 00:26:01;;;;;;;;;;;4.10;99.90;;;;;;4176700;28;20391;-56
2022/02/28 00:28:05;;;;;;;;;;;4.10;99.90;;;;;;4165227;28;20438;-57
2022/02/28 00:30:09;;;;;;;;;;;4.10;99.90;;;;;;4175014;28;20027;-56
2022/02/28 00:32:11;;;;;;;;;;;4.20;99.90;;;;;;4177695;28;19932;-56
2022/02/28 00:34:12;;;;;;;;;;;4.20;99.90;;;;;;4178625;28;19925;-56
2022/02/28 00:36:14;;;;;;;;;;;4.10;99.90;;;;;;4177288;28;19928;-56
2022/02/28 00:38:16;;;;;;;;;;;4.00;99.90;;;;;;4177565;28;20318;-56
2022/02/28 00:40:18;;;;;;;;;;;4.00;99.90;;;;;;4174307;28;19961;-55
2022/02/28 00:42:20;;;;;;;;;;;3.90;99.90;;;;;;4173793;28;19967;-56
2022/02/28 00:44:22;;;;;;;;;;;4.00;99.90;;;;;;4164839;28;19987;-57
2022/02/28 00:46:24;;;;;;;;;;;4.00;99.90;;;;;;4178824;28;19925;-56
2022/02/28 00:48:26;;;;;;;;;;;4.00;99.90;;;;;;4175638;28;19925;-55
2022/02/28 00:50:28;;;;;;;;;;;4.00;99.90;;;;;;4177348;28;19928;-56
2022/02/28 00:52:30;;;;;;;;;;;3.90;99.90;;;;;;4174006;28;19932;-57
2022/02/28 00:54:32;;;;;;;;;;;3.90;99.90;;;;;;4171720;28;19929;-56
2022/02/28 00:56:37;;;;;;;;;;;3.90;99.90;;;;;;4167938;28;19933;-56
2022/02/28 00:58:39;;;;;;;;;;;3.90;99.90;;;;;;4178269;28;20345;-56
2022/02/28 01:00:41;;;;;;;;;;;3.80;99.90;;;;;;4174162;28;19939;-56
2022/02/28 01:02:43;;;;;;;;;;;3.70;99.90;;;;;;4163311;28;20003;-57
2022/02/28 01:04:46;;;;;;;;;;;3.70;99.90;;;;;;4176724;28;19960;-56
2022/02/28 01:06:48;;;;;;;;;;;3.80;99.90;;;;;;4168571;28;19925;-56
2022/02/28 01:08:50;;;;;;;;;;;3.70;99.90;;;;;;4178037;28;19932;-56
2022/02/28 01:10:52;;;;;;;;;;;3.70;99.90;;;;;;4176140;28;19924;-56
2022/02/28 01:12:54;;;;;;;;;;;3.70;99.90;;;;;;4176096;28;20443;-55
2022/02/28 01:14:56;;;;;;;;;;;3.70;99.90;;;;;;4178249;28;19925;-54
2022/02/28 01:16:58;;;;;;;;;;;3.70;99.90;;;;;;4176655;28;19928;-54
2022/02/28 01:19:01;;;;;;;;;;;3.70;99.90;;;;;;4169888;28;20360;-56
2022/02/28 01:21:03;;;;;;;;;;;3.70;99.90;;;;;;4173819;28;19929;-56
2022/02/28 01:23:05;;;;;;;;;;;3.80;99.90;;;;;;4175360;28;19925;-56
2022/02/28 01:25:08;;;;;;;;;;;3.90;99.90;;;;;;4176818;28;19936;-56
2022/02/28 01:27:10;;;;;;;;;;;3.90;99.90;;;;;;4161780;28;20368;-57
2022/02/28 01:29:12;;;;;;;;;;;4.00;99.90;;;;;;4174648;28;19960;-56
2022/02/28 01:31:14;;;;;;;;;;;3.90;99.90;;;;;;4176149;28;20344;-57
2022/02/28 01:33:16;;;;;;;;;;;4.00;99.90;;;;;;4193088;28;19932;-55
2022/02/28 01:35:18;;;;;;;;;;;4.00;99.90;;;;;;4174339;28;19929;-56
2022/02/28 01:37:20;;;;;;;;;;;4.00;99.90;;;;;;4176222;28;19932;-56
2022/02/28 01:39:22;;;;;;;;;;;3.90;99.90;;;;;;4178105;28;19940;-55
2022/02/28 01:41:24;;;;;;;;;;;4.00;99.90;;;;;;4174655;28;19936;-56
2022/02/28 01:43:26;;;;;;;;;;;3.90;99.90;;;;;;4176273;28;20328;-57
2022/02/28 01:45:30;;;;;;;;;;;3.90;99.90;;;;;;4177322;28;19948;-57
2022/02/28 01:47:32;;;;;;;;;;;3.90;99.90;;;;;;4176089;28;20435;-56
2022/02/28 01:49:34;;;;;;;;;;;3.90;99.90;;;;;;4175696;28;19983;-55
2022/02/28 01:51:37;;;;;;;;;;;4.00;99.90;;;;;;4164237;28;19936;-57
2022/02/28 01:53:38;;;;;;;;;;;3.90;99.90;;;;;;4171172;28;19936;-56
2022/02/28 01:55:40;;;;;;;;;;;3.90;99.90;;;;;;4176755;28;20459;-56
2022/02/28 01:57:43;;;;;;;;;;;4.00;99.90;;;;;;4174985;28;19937;-56
2022/02/28 01:59:45;;;;;;;;;;;3.90;99.90;;;;;;4173938;28;19974;-57
2022/02/28 02:01:47;;;;;;;;;;;3.90;99.90;;;;;;4175213;28;19929;-56
2022/02/28 02:03:49;;;;;;;;;;;3.90;99.90;;;;;;4176490;28;20214;-55
2022/02/28 02:05:51;;;;;;;;;;;3.90;99.90;;;;;;4172100;28;19948;-55
2022/02/28 02:07:53;;;;;;;;;;;4.00;99.90;;;;;;4169476;28;19994;-55
2022/02/28 02:09:56;;;;;;;;;;;4.00;99.90;;;;;;4175722;28;20408;-56
2022/02/28 02:11:58;;;;;;;;;;;4.00;99.90;;;;;;4173020;28;19929;-55
2022/02/28 02:14:00;;;;;;;;;;;4.00;99.90;;;;;;4162541;28;19963;-55
2022/02/28 02:16:02;;;;;;;;;;;4.00;99.90;;;;;;4176967;28;20002;-55
2022/02/28 02:18:04;;;;;;;;;;;4.00;99.90;;;;;;4172716;28;19929;-55
2022/02/28 02:20:07;;;;;;;;;;;4.00;99.90;;;;;;4161185;28;19929;-56
2022/02/28 02:22:09;;;;;;;;;;;4.00;99.90;;;;;;4167048;28;19975;-55
2022/02/28 02:24:11;;;;;;;;;;;4.00;99.90;;;;;;4167335;28;19936;-54
2022/02/28 02:26:16;;;;;;;;;;;4.00;99.90;;;;;;4161125;28;20464;-55
2022/02/28 02:28:19;;;;;;;;;;;4.10;99.90;;;;;;4175536;28;19936;-55
2022/02/28 02:30:21;;;;;;;;;;;4.00;99.90;;;;;;4175081;28;19986;-55
2022/02/28 02:32:24;;;;;;;;;;;4.00;99.90;;;;;;4177172;28;19935;-55
2022/02/28 02:34:26;;;;;;;;;;;4.00;99.90;;;;;;4170500;28;19952;-55
2022/02/28 02:36:28;;;;;;;;;;;3.90;99.90;;;;;;4166909;28;20666;-55
2022/02/28 02:38:32;;;;;;;;;;;3.90;99.90;;;;;;4165871;28;20393;-55
2022/02/28 02:40:34;;;;;;;;;;;3.90;99.90;;;;;;4173013;28;19925;-55
2022/02/28 02:42:36;;;;;;;;;;;3.80;99.90;;;;;;4173964;28;19963;-56
2022/02/28 02:44:38;;;;;;;;;;;3.90;99.90;;;;;;4175284;28;19928;-55
2022/02/28 02:46:50;;;;;;;;;;;3.90;99.90;;;;;;4174921;28;19936;-56
2022/02/28 02:48:52;;;;;;;;;;;3.90;99.90;;;;;;4167718;28;19924;-55
2022/02/28 02:50:55;;;;;;;;;;;3.90;99.90;;;;;;4176884;28;19925;-55
2022/02/28 02:52:56;;;;;;;;;;;3.80;99.90;;;;;;4175016;28;19929;-55
2022/02/28 02:54:58;;;;;;;;;;;3.90;99.90;;;;;;4174370;28;20038;-55
2022/02/28 02:57:00;;;;;;;;;;;3.80;99.90;;;;;;4169817;28;19929;-56
2022/02/28 02:59:06;;;;;;;;;;;3.70;99.90;;;;;;4174185;28;19929;-55
2022/02/28 03:01:07;;;;;;;;;;;3.70;99.90;;;;;;4174703;28;19987;-54
2022/02/28 03:03:10;;;;;;;;;;;3.70;99.90;;;;;;4172886;28;19929;-56
2022/02/28 03:05:12;;;;;;;;;;;3.70;99.90;;;;;;4166565;28;19925;-55
2022/02/28 03:07:15;;;;;;;;;;;3.80;99.90;;;;;;4170447;28;19996;-55
2022/02/28 03:09:17;;;;;;;;;;;3.70;99.90;;;;;;4174953;28;20274;-55
2022/02/28 03:11:19;;;;;;;;;;;3.80;99.90;;;;;;4173156;28;19936;-55
2022/02/28 03:13:21;;;;;;;;;;;3.60;99.90;;;;;;4171814;28;20293;-56
2022/02/28 03:15:23;;;;;;;;;;;3.70;99.90;;;;;;4176146;28;19937;-55
2022/02/28 03:17:25;;;;;;;;;;;3.60;99.90;;;;;;4172622;28;19931;-55
2022/02/28 03:19:27;;;;;;;;;;;3.60;99.90;;;;;;4174421;28;20373;-56
2022/02/28 03:21:29;;;;;;;;;;;3.50;99.90;;;;;;4177038;28;19929;-56
2022/02/28 03:23:33;;;;;;;;;;;3.50;99.90;;;;;;4168701;28;20229;-55
2022/02/28 03:25:35;;;;;;;;;;;3.50;99.90;;;;;;4162554;28;19999;-55
2022/02/28 03:27:37;;;;;;;;;;;3.50;99.90;;;;;;4176525;28;19956;-56
2022/02/28 03:29:39;;;;;;;;;;;3.40;99.90;;;;;;4174749;28;19954;-56
2022/02/28 03:31:41;;;;;;;;;;;3.50;99.90;;;;;;4175857;28;19991;-56
2022/02/28 03:33:43;;;;;;;;;;;3.50;99.90;;;;;;4175845;28;19929;-56
2022/02/28 03:35:45;;;;;;;;;;;3.50;99.90;;;;;;4175749;28;19951;-55
2022/02/28 03:37:47;;;;;;;;;;;3.50;99.90;;;;;;4175221;28;19960;-55
2022/02/28 03:39:49;;;;;;;;;;;3.50;99.90;;;;;;4175010;28;19963;-55
2022/02/28 03:41:54;;;;;;;;;;;3.40;99.90;;;;;;4167891;28;19936;-55
2022/02/28 03:43:56;;;;;;;;;;;3.30;99.90;;;;;;4175780;28;19925;-55
2022/02/28 03:45:58;;;;;;;;;;;3.30;99.90;;;;;;4176469;28;19925;-55
2022/02/28 03:48:00;;;;;;;;;;;3.30;99.90;;;;;;4174451;28;19937;-55
2022/02/28 03:50:02;;;;;;;;;;;3.40;99.90;;;;;;4176733;28;19929;-55
2022/02/28 03:52:05;;;;;;;;;;;3.40;99.90;;;;;;4173560;28;19990;-54
2022/02/28 03:54:11;;;;;;;;;;;3.40;99.90;;;;;;4174442;28;19925;-55
2022/02/28 03:56:13;;;;;;;;;;;3.20;99.90;;;;;;4179527;28;19924;-56
2022/02/28 03:58:15;;;;;;;;;;;3.20;99.90;;;;;;4177021;28;19928;-56
2022/02/28 04:00:17;;;;;;;;;;;3.10;99.90;;;;;;4175970;28;19935;-55
2022/02/28 04:02:19;;;;;;;;;;;3.10;99.90;;;;;;4179934;28;19971;-55
2022/02/28 04:04:21;;;;;;;;;;;3.00;99.90;;;;;;4167665;28;19947;-54
2022/02/28 04:06:23;;;;;;;;;;;3.10;99.90;;;;;;4169379;28;20397;-55
2022/02/28 04:08:24;;;;;;;;;;;3.10;99.90;;;;;;4167396;28;19925;-55
2022/02/28 04:10:26;;;;;;;;;;;3.30;99.90;;;;;;4169631;28;20476;-54
2022/02/28 04:12:28;;;;;;;;;;;3.30;99.90;;;;;;4184127;28;20469;-55
2022/02/28 04:14:30;;;;;;;;;;;3.20;99.90;;;;;;4164988;28;20536;-55
2022/02/28 04:16:32;;;;;;;;;;;3.20;99.90;;;;;;4176511;28;20023;-54
2022/02/28 04:18:34;;;;;;;;;;;3.20;99.90;;;;;;4175445;28;19925;-55
2022/02/28 04:20:36;;;;;;;;;;;3.30;99.90;;;;;;4178185;28;19937;-54
2022/02/28 04:22:38;;;;;;;;;;;3.40;99.90;;;;;;4171033;28;20368;-54
2022/02/28 04:24:40;;;;;;;;;;;3.30;99.90;;;;;;4165830;28;20297;-55
2022/02/28 04:26:44;;;;;;;;;;;3.20;99.90;;;;;;4169219;28;20466;-55
2022/02/28 04:28:46;;;;;;;;;;;3.20;99.90;;;;;;4173610;28;19925;-55
2022/02/28 04:30:48;;;;;;;;;;;3.20;99.90;;;;;;4166429;28;19936;-55
2022/02/28 04:32:50;;;;;;;;;;;3.20;99.90;;;;;;4172206;28;19936;-54
2022/02/28 04:34:52;;;;;;;;;;;3.20;99.90;;;;;;4176266;28;19925;-55
2022/02/28 04:36:54;;;;;;;;;;;3.10;99.90;;;;;;4177405;28;19933;-55
2022/02/28 04:38:57;;;;;;;;;;;3.00;99.90;;;;;;4170470;28;20412;-55
2022/02/28 04:40:59;;;;;;;;;;;2.90;99.90;;;;;;4177151;28;19929;-55
2022/02/28 04:43:02;;;;;;;;;;;2.70;99.90;;;;;;4177724;28;19959;-55
2022/02/28 04:45:04;;;;;;;;;;;2.70;99.90;;;;;;4177794;28;20320;-55
2022/02/28 04:47:07;;;;;;;;;;;2.70;99.90;;;;;;4173600;28;19929;-56
2022/02/28 04:49:09;;;;;;;;;;;2.60;99.90;;;;;;4170316;28;19979;-55
2022/02/28 04:51:11;;;;;;;;;;;2.40;99.90;;;;;;4177579;28;19928;-55
2022/02/28 04:53:13;;;;;;;;;;;2.40;99.90;;;;;;4171910;28;19925;-55
2022/02/28 04:55:15;;;;;;;;;;;2.30;99.90;;;;;;4177296;28;19994;-55
2022/02/28 04:57:17;;;;;;;;;;;2.20;99.90;;;;;;4177769;28;19978;-55
2022/02/28 04:59:19;;;;;;;;;;;2.10;99.90;;;;;;4170650;28;19936;-55
2022/02/28 05:01:21;;;;;;;;;;;2.00;99.90;;;;;;4178490;28;20389;-55
2022/02/28 05:03:25;;;;;;;;;;;1.90;99.90;;;;;;4177967;28;19925;-55
2022/02/28 05:05:29;;;;;;;;;;;1.90;99.90;;;;;;4175394;28;20301;-55
2022/02/28 05:07:31;;;;;;;;;;;1.80;99.90;;;;;;4177695;28;19936;-55
2022/02/28 05:09:33;;;;;;;;;;;1.80;99.90;;;;;;4175024;28;19933;-54
2022/02/28 05:11:36;;;;;;;;;;;1.60;99.90;;;;;;4175677;28;19956;-55
2022/02/28 05:13:39;;;;;;;;;;;1.60;99.90;;;;;;4177838;28;19928;-54
2022/02/28 05:15:41;;;;;;;;;;;1.50;99.90;;;;;;4175690;28;19935;-55
2022/02/28 05:17:43;;;;;;;;;;;1.40;99.90;;;;;;4173436;28;20030;-55
2022/02/28 05:19:45;;;;;;;;;;;1.50;99.90;;;;;;4162215;28;20471;-55
2022/02/28 05:21:47;;;;;;;;;;;1.50;99.90;;;;;;4175274;28;19964;-54
2022/02/28 05:23:49;;;;;;;;;;;1.50;99.90;;;;;;4175714;28;19929;-55
2022/02/28 05:25:51;;;;;;;;;;;1.50;99.90;;;;;;4162266;28;19929;-54
2022/02/28 05:28:13;;;;;;;;;;;1.40;99.90;;;;;;4174968;28;19925;-55
2022/02/28 05:30:15;;;;;;;;;;;1.30;99.90;;;;;;4175281;28;20424;-54
2022/02/28 05:32:17;;;;;;;;;;;1.20;99.90;;;;;;4178560;28;20019;-55
2022/02/28 05:34:19;;;;;;;;;;;1.20;99.90;;;;;;4166424;28;20007;-55
2022/02/28 05:36:23;;;;;;;;;;;1.20;99.90;;;;;;4165271;28;19931;-55
2022/02/28 05:38:25;;;;;;;;;;;1.20;99.90;;;;;;4177093;28;20396;-54
2022/02/28 05:40:27;;;;;;;;;;;1.20;99.90;;;;;;4172365;28;19925;-56
2022/02/28 05:42:29;;;;;;;;;;;1.20;99.90;;;;;;4169301;28;20015;-54
2022/02/28 05:44:31;;;;;;;;;;;1.30;99.90;;;;;;4178577;28;19971;-55
2022/02/28 05:46:33;;;;;;;;;;;1.30;99.90;;;;;;4176003;28;19931;-55
2022/02/28 05:48:35;;;;;;;;;;;1.40;99.90;;;;;;4166535;28;19933;-54
2022/02/28 05:50:37;;;;;;;;;;;1.50;99.90;;;;;;4177823;28;19928;-55
2022/02/28 05:52:38;;;;;;;;;;;1.40;99.90;;;;;;4173940;28;20465;-55
2022/02/28 05:54:40;;;;;;;;;;;1.40;99.90;;;;;;4174889;28;19929;-54
2022/02/28 05:56:44;;;;;;;;;;;1.40;99.90;;;;;;4171575;28;19931;-55
2022/02/28 05:58:46;;;;;;;;;;;1.40;99.90;;;;;;4167885;28;19951;-55
2022/02/28 06:00:48;;;;;;;;;;;1.50;99.90;;;;;;4164774;28;19936;-55
2022/02/28 06:02:51;;;;;;;;;;;1.50;99.90;;;;;;4177684;28;19956;-55
2022/02/28 06:04:53;;;;;;;;;;;1.40;99.90;;;;;;4173405;28;19933;-54
2022/02/28 06:06:55;;;;;;;;;;;1.40;99.90;;;;;;4174875;28;20308;-54
2022/02/28 06:08:57;;;;;;;;;;;1.40;99.90;;;;;;4166904;28;20389;-54
2022/02/28 06:10:59;;;;;;;;;;;1.40;99.90;;;;;;4171466;28;19925;-55
2022/02/28 06:13:01;;;;;;;;;;;1.30;99.90;;;;;;4176551;28;19925;-55
2022/02/28 06:15:05;;;;;;;;;;;1.20;99.90;;;;;;4168156;28;19925;-54
2022/02/28 06:17:07;;;;;;;;;;;1.30;99.90;;;;;;4171700;28;19933;-55
2022/02/28 06:19:09;;;;;;;;;;;1.20;99.90;;;;;;4172971;28;19937;-54
2022/02/28 06:21:11;;;;;;;;;;;1.30;99.90;;;;;;4177432;28;19975;-55
2022/02/28 06:23:16;;;;;;;;;;;1.30;99.90;;;;;;4173711;28;19936;-55
2022/02/28 06:25:18;;;;;;;;;;;1.60;99.90;;;;;;4175916;28;20385;-55
2022/02/28 06:27:22;;;;;;;;;;;2.00;99.90;;;;;;4175859;28;19925;-56
2022/02/28 06:29:24;;;;;;;;;;;2.20;99.90;;;;;;4174237;28;19947;-55
2022/02/28 06:31:26;;;;;;;;;;;2.30;99.90;;;;;;4175022;28;19932;-55
2022/02/28 06:33:28;;;;;;;;;;;2.00;99.90;;;;;;4173199;28;19975;-56
2022/02/28 06:35:30;;;;;;;;;;;1.70;99.90;;;;;;4170151;28;19994;-56
2022/02/28 06:37:32;;;;;;;;;;;1.50;99.90;;;;;;4175978;28;19933;-56
2022/02/28 06:39:37;;;;;;;;;;;1.50;99.90;;;;;;4174566;28;19928;-56
2022/02/28 06:41:39;;;;;;;;;;;1.50;99.90;;;;;;4173960;28;19964;-55
2022/02/28 06:43:41;;;;;;;;;;;1.60;99.90;;;;;;4173176;28;19925;-55
2022/02/28 06:45:43;;;;;;;;;;;1.60;99.90;;;;;;4174289;28;19931;-56
2022/02/28 06:47:46;;;;;;;;;;;1.50;99.90;;;;;;4167850;28;20380;-55
2022/02/28 06:49:47;;;;;;;;;;;1.50;99.90;;;;;;4164765;28;19929;-56
2022/02/28 06:51:49;;;;;;;;;;;1.40;99.90;;;;;;4174573;28;19959;-56
2022/02/28 06:53:51;;;;;;;;;;;1.40;99.90;;;;;;4174419;28;20386;-55
2022/02/28 06:55:54;;;;;;;;;;;1.40;99.90;;;;;;4176794;28;19925;-56
2022/02/28 06:57:56;;;;;;;;;;;1.50;99.90;;;;;;4174396;28;19924;-55
2022/02/28 06:59:58;;;;;;;;;;;1.60;99.90;;;;;;4168655;28;19925;-56
2022/02/28 07:02:00;;;;;;;;;;;1.70;99.90;;;;;;4176874;28;20293;-55
2022/02/28 07:04:07;;;;;;;;;;;1.90;99.90;;;;;;4175136;28;20426;-55
2022/02/28 07:06:10;;;;;;;;;;;2.10;99.90;;;;;;4167354;28;19964;-56
2022/02/28 07:08:12;;;;;;;;;;;2.30;99.90;;;;;;4177122;28;20511;-55
2022/02/28 07:10:13;;;;;;;;;;;2.60;99.90;;;;;;4173801;28;19979;-54
2022/02/28 07:12:15;;;;;;;;;;;2.70;99.90;;;;;;4173327;28;19929;-56
2022/02/28 07:14:18;;;;;;;;;;;2.80;99.90;;;;;;4169728;28;20275;-56
2022/02/28 07:16:23;;;;;;;;;;;2.90;99.90;;;;;;4168244;28;19936;-56
2022/02/28 07:18:25;;;;;;;;;;;3.10;99.90;;;;;;4174265;28;19929;-55
2022/02/28 07:20:27;;;;;;;;;;;3.20;99.90;;;;;;4162355;28;19925;-56
2022/02/28 07:22:28;;;;;;;;;;;3.30;99.90;;;;;;4169413;28;19931;-56
2022/02/28 07:24:31;;;;;;;;;;;3.30;99.90;;;;;;4168893;28;19932;-56
2022/02/28 07:26:34;;;;;;;;;;;3.20;99.90;;;;;;4160843;28;19929;-55
2022/02/28 07:28:36;;;;;;;;;;;3.30;99.90;;;;;;4170126;28;20296;-55
2022/02/28 07:30:57;;;;;;;;;;;3.30;99.90;;;;;;4177418;28;19928;-56
2022/02/28 07:33:00;;;;;;;;;;;3.30;99.90;;;;;;4179985;28;19928;-56
2022/02/28 07:35:06;;;;;;;;;;;3.40;99.90;;;;;;4176531;28;19929;-55
2022/02/28 07:37:08;;;;;;;;;;;3.40;99.90;;;;;;4176257;28;19924;-56
2022/02/28 07:39:11;;;;;;;;;;;3.50;99.90;;;;;;4179070;28;19986;-56
2022/02/28 07:41:13;;;;;;;;;;;3.80;99.90;;;;;;4176225;28;19955;-56
2022/02/28 07:43:15;;;;;;;;;;;4.20;99.90;;;;;;4177410;28;20413;-56
2022/02/28 07:45:17;;;;;;;;;;;4.30;99.90;;;;;;4180184;28;19928;-56
2022/02/28 07:47:19;;;;;;;;;;;4.50;99.90;;;;;;4177104;28;19932;-56
2022/02/28 07:49:21;;;;;;;;;;;4.80;99.90;;;;;;4178374;28;20223;-56
2022/02/28 07:51:23;;;;;;;;;;;5.00;99.90;;;;;;4178459;28;19928;-56
2022/02/28 07:53:25;;;;;;;;;;;5.10;99.90;;;;;;4176630;28;19928;-55
2022/02/28 07:55:26;;;;;;;;;;;5.00;99.90;;;;;;4178716;28;19926;-56
2022/02/28 07:57:28;;;;;;;;;;;5.00;99.90;;;;;;4167964;28;20443;-56
2022/02/28 07:59:30;;;;;;;;;;;5.20;99.90;;;;;;4172351;28;19929;-56
2022/02/28 08:01:33;;;;;;;;;;;5.40;99.90;;;;;;4178377;28;19950;-56
2022/02/28 08:03:35;;;;;;;;;;;5.20;99.90;;;;;;4168900;28;19925;-56
2022/02/28 08:05:37;;;;;;;;;;;5.00;99.90;;;;;;4173080;28;19964;-56
2022/02/28 08:07:40;;;;;;;;;;;4.90;99.90;;;;;;4177548;28;20424;-56
2022/02/28 08:09:42;;;;;;;;;;;5.10;99.90;;;;;;4171822;28;19925;-56
2022/02/28 08:11:44;;;;;;;;;;;5.10;99.90;;;;;;4172034;28;19964;-56
2022/02/28 08:13:46;;;;;;;;;;;5.10;99.90;;;;;;4179313;28;19974;-56
2022/02/28 08:15:49;;;;;;;;;;;5.20;99.90;;;;;;4174077;28;19929;-56
2022/02/28 08:17:52;;;;;;;;;;;5.40;99.90;;;;;;4170460;28;19978;-55
2022/02/28 08:19:55;;;;;;;;;;;5.40;99.90;;;;;;4168398;28;19961;-56
2022/02/28 08:21:57;;;;;;;;;;;5.40;99.90;;;;;;4174456;28;19936;-56
2022/02/28 08:23:58;;;;;;;;;;;5.40;99.90;;;;;;4170743;28;21489;-56
2022/02/28 08:26:00;;;;;;;;;;;5.60;99.90;;;;;;4179111;28;19932;-56
2022/02/28 08:28:02;;;;;;;;;;;5.60;99.90;;;;;;4177348;28;20405;-56
2022/02/28 08:30:05;;;;;;;;;;;6.00;99.90;;;;;;4176727;28;19932;-56
2022/02/28 08:32:07;;;;;;;;;;;6.00;99.90;;;;;;4171164;28;19929;-57
2022/02/28 08:34:09;;;;;;;;;;;6.00;99.90;;;;;;4177842;28;20394;-56
2022/02/28 08:36:11;;;;;;;;;;;6.00;99.90;;;;;;4170092;28;19994;-56
2022/02/28 08:38:15;;;;;;;;;;;5.80;99.90;;;;;;4179394;28;20639;-56
2022/02/28 08:40:17;;;;;;;;;;;5.80;99.90;;;;;;4176947;28;19928;-55
2022/02/28 08:42:19;;;;;;;;;;;6.30;99.90;;;;;;4171044;28;19940;-56
2022/02/28 08:44:21;;;;;;;;;;;6.20;99.90;;;;;;4179122;28;19933;-56
2022/02/28 08:46:23;;;;;;;;;;;6.20;99.90;;;;;;4174713;28;19975;-55
2022/02/28 08:48:25;;;;;;;;;;;6.20;99.90;;;;;;4177428;28;19959;-55
2022/02/28 08:50:27;;;;;;;;;;;6.30;99.90;;;;;;4178847;28;19924;-56
2022/02/28 08:52:30;;;;;;;;;;;6.20;99.90;;;;;;4177152;28;19966;-56
2022/02/28 08:54:32;;;;;;;;;;;6.10;99.90;;;;;;4175049;28;20277;-56
2022/02/28 08:56:34;;;;;;;;;;;6.10;99.90;;;;;;4178900;28;19929;-56
2022/02/28 08:58:36;;;;;;;;;;;6.20;99.90;;;;;;4176870;28;19978;-56
2022/02/28 09:00:38;;;;;;;;;;;6.40;99.90;;;;;;4176211;28;19933;-55
2022/02/28 09:02:41;;;;;;;;;;;6.40;99.90;;;;;;4164847;28;20377;-55
2022/02/28 09:04:43;;;;;;;;;;;6.50;99.90;;;;;;4174037;28;19929;-56
2022/02/28 09:06:45;;;;;;;;;;;6.60;99.90;;;;;;4176889;28;19960;-56
2022/02/28 09:08:47;;;;;;;;;;;6.70;99.90;;;;;;4177775;28;19925;-57
2022/02/28 09:10:49;;;;;;;;;;;6.70;99.90;;;;;;4171266;28;19929;-56
2022/02/28 09:12:52;;;;;;;;;;;6.80;99.90;;;;;;4177179;28;19932;-56
2022/02/28 09:14:54;;;;;;;;;;;7.00;99.90;;;;;;4178667;28;20412;-57
2022/02/28 09:16:56;;;;;;;;;;;7.00;99.90;;;;;;4176522;28;19988;-56
2022/02/28 09:18:59;;;;;;;;;;;7.20;99.90;;;;;;4175721;28;20040;-55
2022/02/28 09:21:01;;;;;;;;;;;7.20;99.90;;;;;;4177783;28;20443;-56
2022/02/28 09:23:03;;;;;;;;;;;7.30;99.90;;;;;;4174876;28;19991;-56
2022/02/28 09:25:06;;;;;;;;;;;7.50;99.90;;;;;;4177405;28;19929;-55
2022/02/28 09:27:08;;;;;;;;;;;7.60;99.90;;;;;;4176637;28;19925;-56
2022/02/28 09:29:10;;;;;;;;;;;7.80;99.90;;;;;;4174453;28;19929;-56
2022/02/28 09:31:12;;;;;;;;;;;7.90;99.90;;;;;;4178165;28;19974;-56
2022/02/28 09:33:14;;;;;;;;;;;7.90;99.90;;;;;;4176033;28;19929;-55
2022/02/28 09:35:16;;;;;;;;;;;7.90;99.10;;;;;;4175283;28;19925;-57
2022/02/28 09:37:18;;;;;;;;;;;7.80;99.60;;;;;;4178653;28;19925;-57
2022/02/28 09:39:23;;;;;;;;;;;7.90;98.90;;;;;;4176240;28;20293;-56
2022/02/28 09:41:25;;;;;;;;;;;7.90;97.90;;;;;;4173581;28;19971;-57
2022/02/28 09:43:27;;;;;;;;;;;8.00;98.10;;;;;;4162071;28;19968;-57
2022/02/28 09:45:29;;;;;;;;;;;8.20;95.90;;;;;;4168381;28;19960;-57
2022/02/28 09:47:32;;;;;;;;;;;8.40;95.60;;;;;;4167977;28;19932;-57
2022/02/28 09:49:34;;;;;;;;;;;8.40;97.40;;;;;;4177514;28;19936;-56
2022/02/28 09:51:36;;;;;;;;;;;8.50;96.60;;;;;;4176238;28;19933;-57
2022/02/28 09:53:38;;;;;;;;;;;8.70;98.20;;;;;;4174834;28;20059;-56
2022/02/28 09:55:40;;;;;;;;;;;8.70;95.80;;;;;;4164763;28;19935;-56
2022/02/28 09:57:46;;;;;;;;;;;8.90;96.50;;;;;;4171518;28;19925;-56
2022/02/28 09:59:48;;;;;;;;;;;8.90;92.90;;;;;;4166926;28;20921;-56
2022/02/28 10:01:50;;;;;;;;;;;8.80;93.40;;;;;;4166961;28;19925;-56
2022/02/28 10:03:52;;;;;;;;;;;8.80;92.10;;;;;;4170593;28;19929;-56
2022/02/28 10:06:01;;;;;;;;;;;8.60;91.00;;;;;;4166210;28;19937;-57
2022/02/28 10:08:06;;;;;;;;;;;8.50;91.20;;;;;;4177823;28;19971;-57
2022/02/28 10:10:12;;;;;;;;;;;8.60;91.30;;;;;;4173878;28;19970;-57
2022/02/28 10:12:14;;;;;;;;;;;8.90;92.00;;;;;;4166265;28;20015;-57
2022/02/28 10:14:18;;;;;;;;;;;8.70;88.10;;;;;;4169804;28;19925;-57
2022/02/28 10:16:36;;;;;;;;;;;8.60;91.00;;;;;;4175472;28;20031;-57
2022/02/28 10:18:43;;;;;;;;;;;8.60;88.00;;;;;;4174500;28;20423;-56
2022/02/28 10:20:45;;;;;;;;;;;8.70;88.10;;;;;;4177562;28;19932;-57
2022/02/28 10:22:58;;;;;;;;;;;8.60;86.60;;;;;;4175747;28;19979;-56
2022/02/28 10:25:00;;;;;;;;;;;8.60;89.90;;;;;;4174703;28;19972;-57
2022/02/28 10:27:02;;;;;;;;;;;8.50;87.50;;;;;;4168557;28;19925;-56
2022/02/28 10:29:08;;;;;;;;;;;8.70;89.20;;;;;;4177200;28;19929;-57
2022/02/28 10:31:11;;;;;;;;;;;8.70;87.80;;;;;;4169206;28;19932;-56
2022/02/28 10:33:16;;;;;;;;;;;8.40;84.40;;;;;;4171565;28;20419;-56
2022/02/28 10:37:43;;;;;;;;;;;8.40;87.50;;;;;;4175410;28;19959;-57
2022/02/28 10:39:56;;;;;;;;;;;8.80;87.50;;;;;;4172092;28;19936;-57
2022/02/28 10:42:14;;;;;;;;;;;8.90;86.20;;;;;;4177112;28;19955;-57
2022/02/28 10:44:16;;;;;;;;;;;8.90;86.60;;;;;;4175017;28;19968;-57
2022/02/28 10:46:23;;;;;;;;;;;8.90;84.30;;;;;;4175259;28;19963;-57
2022/02/28 10:48:26;;;;;;;;;;;8.80;86.90;;;;;;4163455;28;19925;-56
2022/02/28 10:50:40;;;;;;;;;;;8.60;84.00;;;;;;4168922;28;19960;-58
2022/02/28 10:52:55;;;;;;;;;;;8.70;85.50;;;;;;4164740;28;19925;-56
2022/02/28 10:55:03;;;;;;;;;;;8.80;83.40;;;;;;4161674;28;19925;-57
2022/02/28 10:57:06;;;;;;;;;;;9.00;82.90;;;;;;4176913;28;19935;-57
2022/02/28 10:59:08;;;;;;;;;;;9.10;82.70;;;;;;4172120;28;19925;-57
2022/02/28 11:01:10;;;;;;;;;;;9.40;90.70;;;;;;4181609;28;19940;-57
2022/02/28 11:03:12;;;;;;;;;;;9.60;85.50;;;;;;4174035;28;20375;-57
2022/02/28 11:05:18;;;;;;;;;;;9.40;82.70;;;;;;4173544;28;19956;-57
2022/02/28 11:07:23;;;;;;;;;;;9.30;83.10;;;;;;4196285;28;19928;-57
2022/02/28 11:09:29;;;;;;;;;;;9.30;82.80;;;;;;4162296;28;20440;-58
2022/02/28 11:11:32;;;;;;;;;;;9.10;83.20;;;;;;4158106;28;20060;-57
2022/02/28 11:13:34;;;;;;;;;;;9.00;80.90;;;;;;4163853;28;19964;-57
2022/02/28 11:15:36;;;;;;;;;;;9.30;82.90;;;;;;4163856;28;19950;-57
2022/02/28 11:17:43;;;;;;;;;;;9.40;81.00;;;;;;4169072;28;19933;-58
2022/02/28 11:19:46;;;;;;;;;;;9.60;82.40;;;;;;4175275;28;19933;-56
2022/02/28 11:21:49;;;;;;;;;;;9.50;81.00;;;;;;4175835;28;19990;-58
2022/02/28 11:23:51;;;;;;;;;;;9.20;79.80;;;;;;4171674;28;19925;-57
2022/02/28 11:25:53;;;;;;;;;;;9.10;81.90;;;;;;4163273;28;19968;-56
2022/02/28 11:27:57;;;;;;;;;;;9.20;80.80;;;;;;4165417;28;20504;-58
2022/02/28 11:30:00;;;;;;;;;;;9.40;82.30;;;;;;4160269;28;19929;-57
2022/02/28 11:32:06;;;;;;;;;;;9.60;83.40;;;;;;4171509;28;19931;-57
2022/02/28 11:34:12;;;;;;;;;;;10.00;83.20;;;;;;4171715;28;20385;-57
2022/02/28 11:36:14;;;;;;;;;;;9.80;83.40;;;;;;4162256;28;19932;-56
2022/02/28 11:38:16;;;;;;;;;;;9.60;80.40;;;;;;4175342;28;19928;-57
2022/02/28 11:40:19;;;;;;;;;;;9.70;84.60;;;;;;4171614;28;19936;-58
2022/02/28 11:42:56;;;;;;;;;;;10.10;82.10;;;;;;4177039;28;19951;-57
2022/02/28 11:44:59;;;;;;;;;;;10.00;81.80;;;;;;4139231;28;19925;-57
2022/02/28 11:47:03;;;;;;;;;;;9.80;82.10;;;;;;4132343;28;19933;-57
2022/02/28 11:49:22;;;;;;;;;;;9.70;82.40;;;;;;4131879;28;19971;-58
2022/02/28 11:51:31;;;;;;;;;;;9.60;81.90;;;;;;4139125;28;19975;-57
2022/02/28 11:53:33;;;;;;;;;;;10.10;85.00;;;;;;4138377;28;19929;-57
2022/02/28 11:55:39;;;;;;;;;;;9.80;82.80;;;;;;4137498;28;19938;-59
2022/02/28 11:58:03;;;;;;;;;;;9.80;81.00;;;;;;4140447;28;19929;-56
2022/02/28 12:00:06;;;;;;;;;;;10.10;82.10;;;;;;4123991;28;20024;-57
2022/02/28 12:02:19;;;;;;;;;;;10.50;82.80;;;;;;4136698;28;19957;-57
2022/02/28 12:04:41;;;;;;;;;;;11.00;82.50;;;;;;4139981;28;20409;-58
2022/02/28 12:06:58;;;;;;;;;;;10.50;80.70;;;;;;4134397;28;19930;-57
2022/02/28 12:09:00;;;;;;;;;;;10.10;82.00;;;;;;4136957;28;19925;-57